sensor_id;sensor_type;location;lat;lon;timestamp;P1;durP1;ratioP1;P2;durP2;ratioP2
60472;SDS011;46318;52.716;6.444;2023-05-14T00:00:13;15.57;;;12.80;;
60472;SDS011;46318;52.716;6.444;2023-05-14T00:02:40;14.35;;;12.40;;
60472;SDS011;46318;52.716;6.444;2023-05-14T00:05:06;14.32;;;12.82;;
60472;SDS011;46318;52.716;6.444;2023-05-14T00:07:33;14.40;;;12.77;;
60472;SDS011;46318;52.716;6.444;2023-05-14T00:09:59;18.75;;;13.25;;
60472;SDS011;46318;52.716;6.444;2023-05-14T00:12:25;15.18;;;13.48;;
60472;SDS011;46318;52.716;6.444;2023-05-14T00:14:51;14.95;;;13.45;;
60472;SDS011;46318;52.716;6.444;2023-05-14T00:17:17;15.35;;;12.27;;
60472;SDS011;46318;52.716;6.444;2023-05-14T00:19:43;20.80;;;13.65;;
60472;SDS011;46318;52.716;6.444;2023-05-14T00:22:09;16.42;;;12.98;;
60472;SDS011;46318;52.716;6.444;2023-05-14T00:24:35;23.80;;;13.88;;
60472;SDS011;46318;52.716;6.444;2023-05-14T00:27:02;18.10;;;13.50;;
60472;SDS011;46318;52.716;6.444;2023-05-14T00:29:28;17.48;;;13.20;;
60472;SDS011;46318;52.716;6.444;2023-05-14T00:31:54;15.70;;;13.23;;
60472;SDS011;46318;52.716;6.444;2023-05-14T00:34:20;18.30;;;14.57;;
60472;SDS011;46318;52.716;6.444;2023-05-14T00:36:46;16.17;;;14.30;;
60472;SDS011;46318;52.716;6.444;2023-05-14T00:39:12;16.98;;;13.38;;
60472;SDS011;46318;52.716;6.444;2023-05-14T00:41:38;16.98;;;13.32;;
60472;SDS011;46318;52.716;6.444;2023-05-14T00:44:04;18.35;;;13.35;;
60472;SDS011;46318;52.716;6.444;2023-05-14T00:46:30;16.48;;;13.30;;
60472;SDS011;46318;52.716;6.444;2023-05-14T00:48:56;17.23;;;13.73;;
60472;SDS011;46318;52.716;6.444;2023-05-14T00:51:23;17.30;;;13.95;;
60472;SDS011;46318;52.716;6.444;2023-05-14T00:53:50;17.38;;;14.00;;
60472;SDS011;46318;52.716;6.444;2023-05-14T00:56:16;16.80;;;14.18;;
60472;SDS011;46318;52.716;6.444;2023-05-14T00:58:43;18.30;;;13.80;;
60472;SDS011;46318;52.716;6.444;2023-05-14T01:01:09;18.00;;;14.07;;
60472;SDS011;46318;52.716;6.444;2023-05-14T01:03:36;17.33;;;14.70;;
60472;SDS011;46318;52.716;6.444;2023-05-14T01:11:47;17.95;;;14.20;;
60472;SDS011;46318;52.716;6.444;2023-05-14T01:17:24;22.30;;;15.18;;
60472;SDS011;46318;52.716;6.444;2023-05-14T01:19:54;18.85;;;14.93;;
60472;SDS011;46318;52.716;6.444;2023-05-14T01:22:20;18.42;;;14.52;;
60472;SDS011;46318;52.716;6.444;2023-05-14T01:24:46;19.38;;;15.05;;
60472;SDS011;46318;52.716;6.444;2023-05-14T01:33:05;16.63;;;14.25;;
60472;SDS011;46318;52.716;6.444;2023-05-14T01:35:38;17.80;;;14.80;;
60472;SDS011;46318;52.716;6.444;2023-05-14T01:38:05;17.27;;;14.68;;
60472;SDS011;46318;52.716;6.444;2023-05-14T01:40:35;17.88;;;15.95;;
60472;SDS011;46318;52.716;6.444;2023-05-14T01:43:02;21.38;;;14.98;;
60472;SDS011;46318;52.716;6.444;2023-05-14T01:45:29;18.02;;;14.52;;
60472;SDS011;46318;52.716;6.444;2023-05-14T01:47:55;20.65;;;15.98;;
60472;SDS011;46318;52.716;6.444;2023-05-14T01:50:23;19.67;;;14.88;;
60472;SDS011;46318;52.716;6.444;2023-05-14T01:52:49;18.48;;;15.10;;
60472;SDS011;46318;52.716;6.444;2023-05-14T01:55:17;16.60;;;14.82;;
60472;SDS011;46318;52.716;6.444;2023-05-14T01:57:43;18.23;;;15.63;;
60472;SDS011;46318;52.716;6.444;2023-05-14T02:00:09;19.38;;;15.73;;
60472;SDS011;46318;52.716;6.444;2023-05-14T02:02:35;20.23;;;15.82;;
60472;SDS011;46318;52.716;6.444;2023-05-14T02:05:01;20.15;;;15.50;;
60472;SDS011;46318;52.716;6.444;2023-05-14T02:07:27;18.83;;;15.63;;
60472;SDS011;46318;52.716;6.444;2023-05-14T02:09:53;18.02;;;15.27;;
60472;SDS011;46318;52.716;6.444;2023-05-14T02:12:19;19.27;;;16.77;;
60472;SDS011;46318;52.716;6.444;2023-05-14T02:14:45;18.15;;;16.25;;
60472;SDS011;46318;52.716;6.444;2023-05-14T02:17:11;22.30;;;16.08;;
60472;SDS011;46318;52.716;6.444;2023-05-14T02:19:39;21.05;;;16.25;;
60472;SDS011;46318;52.716;6.444;2023-05-14T02:22:05;21.27;;;16.42;;
60472;SDS011;46318;52.716;6.444;2023-05-14T02:24:31;18.63;;;14.77;;
60472;SDS011;46318;52.716;6.444;2023-05-14T02:26:57;19.10;;;16.65;;
60472;SDS011;46318;52.716;6.444;2023-05-14T02:29:25;19.35;;;15.85;;
60472;SDS011;46318;52.716;6.444;2023-05-14T02:31:51;23.27;;;16.67;;
60472;SDS011;46318;52.716;6.444;2023-05-14T02:34:17;19.90;;;16.58;;
60472;SDS011;46318;52.716;6.444;2023-05-14T02:36:43;19.45;;;16.67;;
60472;SDS011;46318;52.716;6.444;2023-05-14T02:39:09;20.08;;;16.08;;
60472;SDS011;46318;52.716;6.444;2023-05-14T02:41:35;18.35;;;16.23;;
60472;SDS011;46318;52.716;6.444;2023-05-14T02:44:01;21.80;;;16.92;;
60472;SDS011;46318;52.716;6.444;2023-05-14T02:46:26;21.77;;;16.08;;
60472;SDS011;46318;52.716;6.444;2023-05-14T02:48:52;20.15;;;17.20;;
60472;SDS011;46318;52.716;6.444;2023-05-14T02:51:19;25.00;;;17.33;;
60472;SDS011;46318;52.716;6.444;2023-05-14T02:53:45;24.27;;;17.27;;
60472;SDS011;46318;52.716;6.444;2023-05-14T02:56:11;19.30;;;16.63;;
60472;SDS011;46318;52.716;6.444;2023-05-14T02:58:37;18.90;;;16.92;;
60472;SDS011;46318;52.716;6.444;2023-05-14T03:01:03;18.77;;;16.83;;
60472;SDS011;46318;52.716;6.444;2023-05-14T03:03:29;22.58;;;18.05;;
60472;SDS011;46318;52.716;6.444;2023-05-14T03:05:55;21.00;;;18.55;;
60472;SDS011;46318;52.716;6.444;2023-05-14T03:08:21;20.92;;;16.23;;
60472;SDS011;46318;52.716;6.444;2023-05-14T03:10:47;22.23;;;17.08;;
60472;SDS011;46318;52.716;6.444;2023-05-14T03:13:12;21.27;;;17.85;;
60472;SDS011;46318;52.716;6.444;2023-05-14T03:15:42;20.35;;;18.20;;
60472;SDS011;46318;52.716;6.444;2023-05-14T03:18:08;20.67;;;16.67;;
60472;SDS011;46318;52.716;6.444;2023-05-14T03:20:34;21.45;;;17.98;;
60472;SDS011;46318;52.716;6.444;2023-05-14T03:23:00;20.90;;;17.48;;
60472;SDS011;46318;52.716;6.444;2023-05-14T03:25:26;24.95;;;17.67;;
60472;SDS011;46318;52.716;6.444;2023-05-14T03:27:52;23.92;;;17.55;;
60472;SDS011;46318;52.716;6.444;2023-05-14T03:30:17;20.13;;;16.92;;
60472;SDS011;46318;52.716;6.444;2023-05-14T03:32:43;21.52;;;17.02;;
60472;SDS011;46318;52.716;6.444;2023-05-14T03:35:09;23.38;;;17.50;;
60472;SDS011;46318;52.716;6.444;2023-05-14T03:37:35;21.92;;;17.13;;
60472;SDS011;46318;52.716;6.444;2023-05-14T03:40:01;20.33;;;18.17;;
60472;SDS011;46318;52.716;6.444;2023-05-14T03:42:27;21.83;;;17.75;;
60472;SDS011;46318;52.716;6.444;2023-05-14T03:44:53;23.10;;;17.70;;
60472;SDS011;46318;52.716;6.444;2023-05-14T03:47:19;22.13;;;17.92;;
60472;SDS011;46318;52.716;6.444;2023-05-14T03:49:45;21.00;;;18.60;;
60472;SDS011;46318;52.716;6.444;2023-05-14T03:52:10;19.63;;;17.48;;
60472;SDS011;46318;52.716;6.444;2023-05-14T03:54:36;19.30;;;17.02;;
60472;SDS011;46318;52.716;6.444;2023-05-14T03:57:02;22.38;;;16.35;;
60472;SDS011;46318;52.716;6.444;2023-05-14T03:59:29;24.55;;;17.73;;
60472;SDS011;46318;52.716;6.444;2023-05-14T04:01:55;17.80;;;16.00;;
60472;SDS011;46318;52.716;6.444;2023-05-14T04:04:20;20.08;;;17.00;;
60472;SDS011;46318;52.716;6.444;2023-05-14T04:06:46;21.65;;;17.38;;
60472;SDS011;46318;52.716;6.444;2023-05-14T04:09:12;18.55;;;16.65;;
60472;SDS011;46318;52.716;6.444;2023-05-14T04:11:38;20.40;;;17.30;;
60472;SDS011;46318;52.716;6.444;2023-05-14T04:14:04;24.02;;;16.85;;
60472;SDS011;46318;52.716;6.444;2023-05-14T04:16:30;20.02;;;17.27;;
60472;SDS011;46318;52.716;6.444;2023-05-14T04:18:56;22.27;;;18.05;;
60472;SDS011;46318;52.716;6.444;2023-05-14T04:21:22;20.00;;;16.23;;
60472;SDS011;46318;52.716;6.444;2023-05-14T04:23:48;20.90;;;17.30;;
60472;SDS011;46318;52.716;6.444;2023-05-14T04:26:14;20.10;;;16.65;;
60472;SDS011;46318;52.716;6.444;2023-05-14T04:28:40;25.02;;;16.80;;
60472;SDS011;46318;52.716;6.444;2023-05-14T04:31:06;20.48;;;16.25;;
60472;SDS011;46318;52.716;6.444;2023-05-14T04:33:32;21.17;;;17.10;;
60472;SDS011;46318;52.716;6.444;2023-05-14T04:35:57;21.83;;;17.10;;
60472;SDS011;46318;52.716;6.444;2023-05-14T04:38:23;17.90;;;15.85;;
60472;SDS011;46318;52.716;6.444;2023-05-14T04:40:49;20.55;;;16.50;;
60472;SDS011;46318;52.716;6.444;2023-05-14T04:43:15;19.00;;;16.33;;
60472;SDS011;46318;52.716;6.444;2023-05-14T04:45:41;20.88;;;16.58;;
60472;SDS011;46318;52.716;6.444;2023-05-14T04:48:07;21.45;;;16.67;;
60472;SDS011;46318;52.716;6.444;2023-05-14T04:50:33;18.45;;;16.58;;
60472;SDS011;46318;52.716;6.444;2023-05-14T04:52:59;20.02;;;17.13;;
60472;SDS011;46318;52.716;6.444;2023-05-14T04:55:25;22.02;;;18.30;;
60472;SDS011;46318;52.716;6.444;2023-05-14T04:57:51;22.73;;;18.33;;
60472;SDS011;46318;52.716;6.444;2023-05-14T05:00:17;20.60;;;17.00;;
60472;SDS011;46318;52.716;6.444;2023-05-14T05:02:45;21.92;;;17.15;;
60472;SDS011;46318;52.716;6.444;2023-05-14T05:05:11;18.13;;;16.23;;
60472;SDS011;46318;52.716;6.444;2023-05-14T05:07:38;23.52;;;16.00;;
60472;SDS011;46318;52.716;6.444;2023-05-14T05:10:04;17.42;;;15.65;;
60472;SDS011;46318;52.716;6.444;2023-05-14T05:12:31;24.58;;;16.55;;
60472;SDS011;46318;52.716;6.444;2023-05-14T05:14:57;23.98;;;17.52;;
60472;SDS011;46318;52.716;6.444;2023-05-14T05:17:23;18.40;;;15.65;;
60472;SDS011;46318;52.716;6.444;2023-05-14T05:19:49;18.10;;;15.23;;
60472;SDS011;46318;52.716;6.444;2023-05-14T05:22:15;19.65;;;15.32;;
60472;SDS011;46318;52.716;6.444;2023-05-14T05:24:41;19.17;;;15.68;;
60472;SDS011;46318;52.716;6.444;2023-05-14T05:27:07;17.25;;;14.52;;
60472;SDS011;46318;52.716;6.444;2023-05-14T05:29:33;15.63;;;13.80;;
60472;SDS011;46318;52.716;6.444;2023-05-14T05:32:00;20.17;;;14.95;;
60472;SDS011;46318;52.716;6.444;2023-05-14T05:34:26;16.70;;;14.85;;
60472;SDS011;46318;52.716;6.444;2023-05-14T05:36:52;15.93;;;14.10;;
60472;SDS011;46318;52.716;6.444;2023-05-14T05:39:18;17.80;;;14.63;;
60472;SDS011;46318;52.716;6.444;2023-05-14T05:41:44;19.55;;;13.65;;
60472;SDS011;46318;52.716;6.444;2023-05-14T05:44:10;19.23;;;14.80;;
60472;SDS011;46318;52.716;6.444;2023-05-14T05:46:36;17.17;;;14.85;;
60472;SDS011;46318;52.716;6.444;2023-05-14T05:49:01;21.23;;;15.43;;
60472;SDS011;46318;52.716;6.444;2023-05-14T05:51:27;18.80;;;15.15;;
60472;SDS011;46318;52.716;6.444;2023-05-14T05:53:54;18.17;;;15.30;;
60472;SDS011;46318;52.716;6.444;2023-05-14T05:56:20;19.42;;;14.80;;
60472;SDS011;46318;52.716;6.444;2023-05-14T05:58:46;19.42;;;14.63;;
60472;SDS011;46318;52.716;6.444;2023-05-14T06:01:12;20.77;;;14.38;;
60472;SDS011;46318;52.716;6.444;2023-05-14T06:03:44;18.63;;;14.32;;
60472;SDS011;46318;52.716;6.444;2023-05-14T06:06:10;23.58;;;15.77;;
60472;SDS011;46318;52.716;6.444;2023-05-14T06:08:36;19.80;;;15.73;;
60472;SDS011;46318;52.716;6.444;2023-05-14T06:11:02;21.83;;;15.38;;
60472;SDS011;46318;52.716;6.444;2023-05-14T06:13:28;19.50;;;15.88;;
60472;SDS011;46318;52.716;6.444;2023-05-14T06:15:54;20.52;;;16.15;;
60472;SDS011;46318;52.716;6.444;2023-05-14T06:18:20;22.40;;;16.05;;
60472;SDS011;46318;52.716;6.444;2023-05-14T06:20:45;18.77;;;15.23;;
60472;SDS011;46318;52.716;6.444;2023-05-14T06:23:11;24.38;;;15.77;;
60472;SDS011;46318;52.716;6.444;2023-05-14T06:25:37;22.90;;;16.20;;
60472;SDS011;46318;52.716;6.444;2023-05-14T06:28:03;19.35;;;15.82;;
60472;SDS011;46318;52.716;6.444;2023-05-14T06:30:32;22.27;;;16.92;;
60472;SDS011;46318;52.716;6.444;2023-05-14T06:32:58;24.42;;;17.67;;
60472;SDS011;46318;52.716;6.444;2023-05-14T06:35:24;30.42;;;19.52;;
60472;SDS011;46318;52.716;6.444;2023-05-14T06:37:49;21.88;;;17.38;;
60472;SDS011;46318;52.716;6.444;2023-05-14T06:40:15;21.88;;;16.70;;
60472;SDS011;46318;52.716;6.444;2023-05-14T06:42:42;22.13;;;17.50;;
60472;SDS011;46318;52.716;6.444;2023-05-14T06:45:08;21.50;;;16.67;;
60472;SDS011;46318;52.716;6.444;2023-05-14T06:47:34;24.92;;;17.35;;
60472;SDS011;46318;52.716;6.444;2023-05-14T06:50:00;27.67;;;18.00;;
60472;SDS011;46318;52.716;6.444;2023-05-14T06:52:26;23.42;;;16.63;;
60472;SDS011;46318;52.716;6.444;2023-05-14T06:54:52;24.67;;;19.08;;
60472;SDS011;46318;52.716;6.444;2023-05-14T06:57:19;24.67;;;19.35;;
60472;SDS011;46318;52.716;6.444;2023-05-14T06:59:45;23.73;;;17.63;;
60472;SDS011;46318;52.716;6.444;2023-05-14T07:02:11;22.00;;;17.50;;
60472;SDS011;46318;52.716;6.444;2023-05-14T07:04:37;21.33;;;17.02;;
60472;SDS011;46318;52.716;6.444;2023-05-14T07:07:03;24.75;;;18.90;;
60472;SDS011;46318;52.716;6.444;2023-05-14T07:09:29;23.83;;;18.05;;
60472;SDS011;46318;52.716;6.444;2023-05-14T07:11:55;23.95;;;16.52;;
60472;SDS011;46318;52.716;6.444;2023-05-14T07:14:21;22.90;;;16.92;;
60472;SDS011;46318;52.716;6.444;2023-05-14T07:16:47;22.38;;;17.75;;
60472;SDS011;46318;52.716;6.444;2023-05-14T07:19:13;20.38;;;18.13;;
60472;SDS011;46318;52.716;6.444;2023-05-14T07:21:38;21.73;;;17.02;;
60472;SDS011;46318;52.716;6.444;2023-05-14T07:24:04;20.85;;;16.33;;
60472;SDS011;46318;52.716;6.444;2023-05-14T07:26:31;22.80;;;17.45;;
60472;SDS011;46318;52.716;6.444;2023-05-14T07:28:57;20.58;;;16.83;;
60472;SDS011;46318;52.716;6.444;2023-05-14T07:31:23;24.67;;;17.73;;
60472;SDS011;46318;52.716;6.444;2023-05-14T07:33:49;18.83;;;16.35;;
60472;SDS011;46318;52.716;6.444;2023-05-14T07:36:14;19.08;;;14.88;;
60472;SDS011;46318;52.716;6.444;2023-05-14T07:38:40;17.85;;;15.13;;
60472;SDS011;46318;52.716;6.444;2023-05-14T07:41:06;18.73;;;15.25;;
60472;SDS011;46318;52.716;6.444;2023-05-14T07:43:32;17.05;;;15.25;;
60472;SDS011;46318;52.716;6.444;2023-05-14T07:45:58;22.15;;;14.60;;
60472;SDS011;46318;52.716;6.444;2023-05-14T07:48:24;18.88;;;15.18;;
60472;SDS011;46318;52.716;6.444;2023-05-14T07:50:50;17.70;;;13.82;;
60472;SDS011;46318;52.716;6.444;2023-05-14T07:53:16;16.80;;;13.57;;
60472;SDS011;46318;52.716;6.444;2023-05-14T07:55:43;20.30;;;13.80;;
60472;SDS011;46318;52.716;6.444;2023-05-14T07:58:12;17.98;;;12.52;;
60472;SDS011;46318;52.716;6.444;2023-05-14T08:00:38;19.38;;;13.27;;
60472;SDS011;46318;52.716;6.444;2023-05-14T08:03:03;16.33;;;12.00;;
60472;SDS011;46318;52.716;6.444;2023-05-14T08:05:29;17.83;;;12.45;;
60472;SDS011;46318;52.716;6.444;2023-05-14T08:07:56;20.58;;;11.90;;
60472;SDS011;46318;52.716;6.444;2023-05-14T08:10:22;13.75;;;12.02;;
60472;SDS011;46318;52.716;6.444;2023-05-14T08:12:48;15.57;;;11.50;;
60472;SDS011;46318;52.716;6.444;2023-05-14T08:15:14;13.38;;;11.18;;
60472;SDS011;46318;52.716;6.444;2023-05-14T08:17:40;14.98;;;11.02;;
60472;SDS011;46318;52.716;6.444;2023-05-14T08:20:07;17.60;;;12.70;;
60472;SDS011;46318;52.716;6.444;2023-05-14T08:22:33;16.98;;;13.20;;
60472;SDS011;46318;52.716;6.444;2023-05-14T08:24:59;15.82;;;12.95;;
60472;SDS011;46318;52.716;6.444;2023-05-14T08:27:27;16.20;;;11.80;;
60472;SDS011;46318;52.716;6.444;2023-05-14T08:29:53;15.30;;;11.02;;
60472;SDS011;46318;52.716;6.444;2023-05-14T08:32:19;17.23;;;12.13;;
60472;SDS011;46318;52.716;6.444;2023-05-14T08:34:45;16.92;;;11.38;;
60472;SDS011;46318;52.716;6.444;2023-05-14T08:37:11;14.07;;;10.88;;
60472;SDS011;46318;52.716;6.444;2023-05-14T08:39:36;17.52;;;10.38;;
60472;SDS011;46318;52.716;6.444;2023-05-14T08:42:02;13.18;;;10.70;;
60472;SDS011;46318;52.716;6.444;2023-05-14T08:44:35;15.77;;;10.10;;
60472;SDS011;46318;52.716;6.444;2023-05-14T08:47:13;14.90;;;9.02;;
60472;SDS011;46318;52.716;6.444;2023-05-14T08:49:43;14.82;;;8.98;;
60472;SDS011;46318;52.716;6.444;2023-05-14T08:52:12;12.40;;;7.95;;
60472;SDS011;46318;52.716;6.444;2023-05-14T08:54:40;11.77;;;9.02;;
60472;SDS011;46318;52.716;6.444;2023-05-14T08:57:08;14.00;;;9.57;;
60472;SDS011;46318;52.716;6.444;2023-05-14T08:59:34;10.65;;;8.50;;
60472;SDS011;46318;52.716;6.444;2023-05-14T09:02:01;13.18;;;8.90;;
60472;SDS011;46318;52.716;6.444;2023-05-14T09:04:29;11.65;;;8.98;;
60472;SDS011;46318;52.716;6.444;2023-05-14T09:06:56;13.15;;;8.90;;
60472;SDS011;46318;52.716;6.444;2023-05-14T09:09:26;12.38;;;9.20;;
60472;SDS011;46318;52.716;6.444;2023-05-14T09:11:52;13.90;;;9.15;;
60472;SDS011;46318;52.716;6.444;2023-05-14T09:14:18;12.90;;;8.98;;
60472;SDS011;46318;52.716;6.444;2023-05-14T09:16:47;9.73;;;8.60;;
60472;SDS011;46318;52.716;6.444;2023-05-14T09:19:14;13.93;;;9.90;;
60472;SDS011;46318;52.716;6.444;2023-05-14T09:21:46;10.77;;;8.50;;
60472;SDS011;46318;52.716;6.444;2023-05-14T09:24:19;11.95;;;8.52;;
60472;SDS011;46318;52.716;6.444;2023-05-14T09:26:52;11.48;;;8.55;;
60472;SDS011;46318;52.716;6.444;2023-05-14T09:29:20;12.63;;;8.98;;
60472;SDS011;46318;52.716;6.444;2023-05-14T09:31:50;11.98;;;8.38;;
60472;SDS011;46318;52.716;6.444;2023-05-14T09:34:23;12.23;;;9.00;;
60472;SDS011;46318;52.716;6.444;2023-05-14T09:36:59;11.77;;;10.00;;
60472;SDS011;46318;52.716;6.444;2023-05-14T09:39:33;11.60;;;8.88;;
60472;SDS011;46318;52.716;6.444;2023-05-14T09:42:00;14.70;;;9.43;;
60472;SDS011;46318;52.716;6.444;2023-05-14T09:44:27;12.60;;;9.35;;
60472;SDS011;46318;52.716;6.444;2023-05-14T09:46:53;10.25;;;8.40;;
60472;SDS011;46318;52.716;6.444;2023-05-14T09:49:20;13.05;;;9.10;;
60472;SDS011;46318;52.716;6.444;2023-05-14T09:51:50;15.50;;;9.38;;
60472;SDS011;46318;52.716;6.444;2023-05-14T09:54:16;12.07;;;9.60;;
60472;SDS011;46318;52.716;6.444;2023-05-14T09:56:42;14.02;;;10.15;;
60472;SDS011;46318;52.716;6.444;2023-05-14T09:59:09;13.77;;;9.52;;
60472;SDS011;46318;52.716;6.444;2023-05-14T10:01:35;11.95;;;9.70;;
60472;SDS011;46318;52.716;6.444;2023-05-14T10:04:02;13.73;;;10.23;;
60472;SDS011;46318;52.716;6.444;2023-05-14T10:06:35;13.05;;;8.88;;
60472;SDS011;46318;52.716;6.444;2023-05-14T10:09:09;11.82;;;9.60;;
60472;SDS011;46318;52.716;6.444;2023-05-14T10:11:39;10.48;;;9.07;;
60472;SDS011;46318;52.716;6.444;2023-05-14T10:16:45;13.00;;;8.55;;
60472;SDS011;46318;52.716;6.444;2023-05-14T10:19:16;11.90;;;8.45;;
60472;SDS011;46318;52.716;6.444;2023-05-14T10:21:46;10.35;;;8.10;;
60472;SDS011;46318;52.716;6.444;2023-05-14T10:24:17;10.38;;;7.47;;
60472;SDS011;46318;52.716;6.444;2023-05-14T10:26:44;10.93;;;7.25;;
60472;SDS011;46318;52.716;6.444;2023-05-14T10:29:10;11.00;;;7.55;;
60472;SDS011;46318;52.716;6.444;2023-05-14T10:31:44;9.98;;;7.20;;
60472;SDS011;46318;52.716;6.444;2023-05-14T10:39:52;10.65;;;7.82;;
60472;SDS011;46318;52.716;6.444;2023-05-14T10:42:31;10.05;;;8.02;;
60472;SDS011;46318;52.716;6.444;2023-05-14T10:45:09;10.73;;;7.82;;
60472;SDS011;46318;52.716;6.444;2023-05-14T10:47:38;11.43;;;7.75;;
60472;SDS011;46318;52.716;6.444;2023-05-14T10:50:12;10.20;;;7.68;;
60472;SDS011;46318;52.716;6.444;2023-05-14T10:52:43;10.30;;;7.13;;
60472;SDS011;46318;52.716;6.444;2023-05-14T10:55:13;9.40;;;7.32;;
60472;SDS011;46318;52.716;6.444;2023-05-14T10:57:44;10.18;;;7.40;;
60472;SDS011;46318;52.716;6.444;2023-05-14T11:00:11;7.03;;;6.30;;
60472;SDS011;46318;52.716;6.444;2023-05-14T11:02:39;7.93;;;6.57;;
60472;SDS011;46318;52.716;6.444;2023-05-14T11:05:11;7.70;;;6.45;;
60472;SDS011;46318;52.716;6.444;2023-05-14T11:07:41;7.72;;;7.00;;
60472;SDS011;46318;52.716;6.444;2023-05-14T11:10:16;13.48;;;7.60;;
60472;SDS011;46318;52.716;6.444;2023-05-14T11:12:47;6.53;;;5.93;;
60472;SDS011;46318;52.716;6.444;2023-05-14T11:17:46;8.43;;;5.50;;
60472;SDS011;46318;52.716;6.444;2023-05-14T11:20:14;8.68;;;5.20;;
60472;SDS011;46318;52.716;6.444;2023-05-14T11:22:41;11.57;;;5.85;;
60472;SDS011;46318;52.716;6.444;2023-05-14T11:25:08;6.85;;;5.18;;
60472;SDS011;46318;52.716;6.444;2023-05-14T11:27:36;10.68;;;5.82;;
60472;SDS011;46318;52.716;6.444;2023-05-14T11:30:03;9.95;;;6.05;;
60472;SDS011;46318;52.716;6.444;2023-05-14T11:32:31;8.77;;;5.72;;
60472;SDS011;46318;52.716;6.444;2023-05-14T11:34:57;7.43;;;5.88;;
60472;SDS011;46318;52.716;6.444;2023-05-14T11:37:26;6.18;;;5.30;;
60472;SDS011;46318;52.716;6.444;2023-05-14T11:39:52;11.18;;;5.72;;
60472;SDS011;46318;52.716;6.444;2023-05-14T11:42:20;7.65;;;4.68;;
60472;SDS011;46318;52.716;6.444;2023-05-14T11:44:47;6.97;;;4.72;;
60472;SDS011;46318;52.716;6.444;2023-05-14T11:49:45;7.80;;;5.20;;
60472;SDS011;46318;52.716;6.444;2023-05-14T11:52:12;10.70;;;5.05;;
60472;SDS011;46318;52.716;6.444;2023-05-14T11:54:40;5.30;;;4.75;;
60472;SDS011;46318;52.716;6.444;2023-05-14T11:57:09;8.15;;;4.95;;
60472;SDS011;46318;52.716;6.444;2023-05-14T11:59:40;8.82;;;5.13;;
60472;SDS011;46318;52.716;6.444;2023-05-14T12:02:10;7.55;;;4.18;;
60472;SDS011;46318;52.716;6.444;2023-05-14T12:04:38;7.82;;;4.57;;
60472;SDS011;46318;52.716;6.444;2023-05-14T12:07:06;7.35;;;4.13;;
60472;SDS011;46318;52.716;6.444;2023-05-14T12:09:36;5.32;;;4.28;;
60472;SDS011;46318;52.716;6.444;2023-05-14T12:12:08;5.15;;;4.22;;
60472;SDS011;46318;52.716;6.444;2023-05-14T12:14:40;6.03;;;4.00;;
60472;SDS011;46318;52.716;6.444;2023-05-14T12:17:25;7.90;;;4.68;;
60472;SDS011;46318;52.716;6.444;2023-05-14T12:19:51;7.20;;;4.70;;
60472;SDS011;46318;52.716;6.444;2023-05-14T12:22:21;4.85;;;4.22;;
60472;SDS011;46318;52.716;6.444;2023-05-14T12:24:57;6.60;;;4.47;;
60472;SDS011;46318;52.716;6.444;2023-05-14T12:27:25;5.50;;;4.28;;
60472;SDS011;46318;52.716;6.444;2023-05-14T12:30:01;9.05;;;4.30;;
60472;SDS011;46318;52.716;6.444;2023-05-14T12:32:32;6.10;;;4.15;;
60472;SDS011;46318;52.716;6.444;2023-05-14T12:35:00;6.10;;;3.95;;
60472;SDS011;46318;52.716;6.444;2023-05-14T12:37:26;7.40;;;3.95;;
60472;SDS011;46318;52.716;6.444;2023-05-14T12:39:52;4.75;;;3.55;;
60472;SDS011;46318;52.716;6.444;2023-05-14T12:42:18;5.50;;;4.30;;
60472;SDS011;46318;52.716;6.444;2023-05-14T12:44:44;5.50;;;4.22;;
60472;SDS011;46318;52.716;6.444;2023-05-14T12:47:09;4.22;;;3.45;;
60472;SDS011;46318;52.716;6.444;2023-05-14T12:49:35;5.70;;;3.40;;
60472;SDS011;46318;52.716;6.444;2023-05-14T12:52:01;11.10;;;3.83;;
60472;SDS011;46318;52.716;6.444;2023-05-14T12:54:29;4.20;;;3.35;;
60472;SDS011;46318;52.716;6.444;2023-05-14T12:56:56;8.27;;;4.05;;
60472;SDS011;46318;52.716;6.444;2023-05-14T12:59:22;5.47;;;3.85;;
60472;SDS011;46318;52.716;6.444;2023-05-14T13:01:48;6.07;;;3.78;;
60472;SDS011;46318;52.716;6.444;2023-05-14T13:04:14;6.75;;;3.75;;
60472;SDS011;46318;52.716;6.444;2023-05-14T13:06:40;4.13;;;3.80;;
60472;SDS011;46318;52.716;6.444;2023-05-14T13:09:06;5.68;;;4.80;;
60472;SDS011;46318;52.716;6.444;2023-05-14T13:11:32;5.53;;;4.22;;
60472;SDS011;46318;52.716;6.444;2023-05-14T13:13:58;6.35;;;4.00;;
60472;SDS011;46318;52.716;6.444;2023-05-14T13:16:26;4.38;;;3.97;;
60472;SDS011;46318;52.716;6.444;2023-05-14T13:18:52;4.55;;;4.10;;
60472;SDS011;46318;52.716;6.444;2023-05-14T13:21:19;4.53;;;3.80;;
60472;SDS011;46318;52.716;6.444;2023-05-14T13:23:46;7.95;;;4.53;;
60472;SDS011;46318;52.716;6.444;2023-05-14T13:26:12;5.35;;;4.30;;
60472;SDS011;46318;52.716;6.444;2023-05-14T13:28:39;5.70;;;4.38;;
60472;SDS011;46318;52.716;6.444;2023-05-14T13:31:06;7.53;;;4.13;;
60472;SDS011;46318;52.716;6.444;2023-05-14T13:33:42;12.13;;;4.20;;
60472;SDS011;46318;52.716;6.444;2023-05-14T13:36:09;4.72;;;4.25;;
60472;SDS011;46318;52.716;6.444;2023-05-14T13:38:39;5.40;;;3.60;;
60472;SDS011;46318;52.716;6.444;2023-05-14T13:41:05;5.55;;;4.68;;
60472;SDS011;46318;52.716;6.444;2023-05-14T13:43:31;10.20;;;4.88;;
60472;SDS011;46318;52.716;6.444;2023-05-14T13:45:58;6.00;;;4.15;;
60472;SDS011;46318;52.716;6.444;2023-05-14T13:48:25;5.72;;;4.07;;
60472;SDS011;46318;52.716;6.444;2023-05-14T13:50:52;5.18;;;3.90;;
60472;SDS011;46318;52.716;6.444;2023-05-14T13:53:18;5.18;;;4.05;;
60472;SDS011;46318;52.716;6.444;2023-05-14T13:55:47;4.63;;;4.18;;
60472;SDS011;46318;52.716;6.444;2023-05-14T13:58:13;5.25;;;4.10;;
60472;SDS011;46318;52.716;6.444;2023-05-14T14:00:39;5.10;;;4.15;;
60472;SDS011;46318;52.716;6.444;2023-05-14T14:03:05;6.70;;;4.05;;
60472;SDS011;46318;52.716;6.444;2023-05-14T14:05:32;5.03;;;4.53;;
60472;SDS011;46318;52.716;6.444;2023-05-14T14:07:59;5.93;;;4.20;;
60472;SDS011;46318;52.716;6.444;2023-05-14T14:10:25;7.10;;;4.32;;
60472;SDS011;46318;52.716;6.444;2023-05-14T14:12:51;5.28;;;4.07;;
60472;SDS011;46318;52.716;6.444;2023-05-14T14:15:17;8.43;;;4.45;;
60472;SDS011;46318;52.716;6.444;2023-05-14T14:17:43;6.47;;;4.10;;
60472;SDS011;46318;52.716;6.444;2023-05-14T14:20:09;5.05;;;4.13;;
60472;SDS011;46318;52.716;6.444;2023-05-14T14:22:36;5.22;;;3.97;;
60472;SDS011;46318;52.716;6.444;2023-05-14T14:25:02;4.40;;;4.00;;
60472;SDS011;46318;52.716;6.444;2023-05-14T14:27:28;5.28;;;4.30;;
60472;SDS011;46318;52.716;6.444;2023-05-14T14:29:59;5.28;;;4.07;;
60472;SDS011;46318;52.716;6.444;2023-05-14T14:32:24;4.68;;;4.20;;
60472;SDS011;46318;52.716;6.444;2023-05-14T14:34:50;5.00;;;4.50;;
60472;SDS011;46318;52.716;6.444;2023-05-14T14:37:16;7.97;;;4.75;;
60472;SDS011;46318;52.716;6.444;2023-05-14T14:39:42;5.03;;;4.13;;
60472;SDS011;46318;52.716;6.444;2023-05-14T14:42:08;6.05;;;4.32;;
60472;SDS011;46318;52.716;6.444;2023-05-14T14:44:34;5.63;;;4.53;;
60472;SDS011;46318;52.716;6.444;2023-05-14T14:46:59;5.50;;;4.47;;
60472;SDS011;46318;52.716;6.444;2023-05-14T14:49:25;5.90;;;4.78;;
60472;SDS011;46318;52.716;6.444;2023-05-14T14:51:52;5.63;;;5.10;;
60472;SDS011;46318;52.716;6.444;2023-05-14T14:54:18;4.90;;;4.18;;
60472;SDS011;46318;52.716;6.444;2023-05-14T14:56:45;13.15;;;6.70;;